EDT,Max TemperatureF,Mean TemperatureF,Min TemperatureF,Max Dew PointF,MeanDew PointF,Min DewpointF,Max Humidity, Mean Humidity, Min Humidity, Max Sea Level PressureIn, Mean Sea Level PressureIn, Min Sea Level PressureIn, Max VisibilityMiles, Mean VisibilityMiles, Min VisibilityMiles, Max Wind SpeedMPH, Mean Wind SpeedMPH, Max Gust SpeedMPH,PrecipitationIn, CloudCover, Events, WindDirDegrees
2013-8-1,88,81,73,76,72,69,88,75,61,30.06,30.02,29.98,10,9,0,12,3,16,0.37,3,Rain-Thunderstorm,185
2013-8-2,96,85,74,76,72,70,93,68,43,30.07,30.02,29.97,10,10,8,8,2,12,0.01,3,,185
2013-8-3,96,86,75,76,73,71,88,67,45,30.09,30.05,30.01,10,10,6,7,2,14,0.00,3,,0
2013-8-4,97,87,77,76,74,71,91,68,45,30.09,30.03,29.97,10,7,2,9,2,15,0.09,3,Rain-Thunderstorm,310
2013-8-5,97,86,75,75,72,67,88,63,38,30.04,30.00,29.94,10,8,2,8,1,13,0.01,1,,85
2013-8-6,96,87,77,76,74,70,91,67,43,30.04,29.97,29.92,10,6,1,15,3,18,0.00,5,,110
2013-8-7,94,86,77,76,74,71,91,70,49,30.05,30.01,29.96,10,9,4,14,4,17,0.01,4,Rain,122
2013-8-8,96,87,77,77,73,70,88,67,46,30.07,30.02,29.97,10,8,0,12,4,15,0.36,5,Rain-Thunderstorm,135
2013-8-9,96,85,74,74,71,66,93,66,39,30.13,30.07,30.02,10,10,8,10,4,15,0.00,1,,139
2013-8-10,95,85,75,74,71,68,87,65,42,30.16,30.13,30.09,10,10,10,14,4,21,0.00,1,Rain,170
2013-8-11,99,87,74,77,72,70,91,67,42,30.20,30.15,30.10,10,10,7,12,1,16,0.00,2,,175
2013-8-12,99,88,76,74,72,68,88,63,38,30.15,30.10,30.03,10,9,5,8,2,12,0.00,1,,5
2013-8-13,97,85,73,75,72,69,87,68,49,30.06,30.02,29.95,10,10,9,10,1,21,T,2,Rain,305
2013-8-14,97,86,75,79,73,71,88,69,49,30.01,29.96,29.90,10,10,6,10,1,20,0.28,3,Rain-Thunderstorm,238
2013-8-15,94,84,74,75,72,68,87,68,49,30.06,30.00,29.96,10,8,1,9,4,25,0.62,5,Rain-Thunderstorm,141
2013-8-16,89,81,72,74,72,69,94,79,63,30.08,30.02,29.98,10,7,1,25,4,33,0.39,6,Rain,171
2013-8-17,89,82,74,75,72,70,94,77,59,30.14,30.07,30.02,10,8,2,10,3,21,0.58,6,Rain-Thunderstorm,144
2013-8-18,94,84,74,75,72,70,94,72,49,30.15,30.10,30.06,10,10,2,16,4,22,0.18,4,Rain-Thunderstorm,127
2013-8-19,93,84,75,75,73,72,88,72,56,30.12,30.07,30.02,10,9,1,18,4,23,0.32,5,Rain-Thunderstorm,143
2013-8-20,94,85,75,75,72,70,88,69,49,30.16,30.09,30.03,10,8,0,20,4,28,0.39,5,Fog-Rain,110
2013-8-21,95,85,74,76,73,70,91,69,46,30.20,30.16,30.11,10,9,3,22,4,29,0.09,3,Rain,101
2013-8-22,81,77,73,76,72,69,94,84,74,30.19,30.13,30.06,10,7,0,20,3,28,1.17,5,Fog-Rain-Thunderstorm,109
2013-8-23,93,82,71,73,71,68,90,68,46,30.09,30.06,30.01,10,8,2,29,3,36,0.45,4,Rain-Thunderstorm,135
2013-8-24,88,81,73,73,71,69,87,73,59,30.18,30.12,30.04,10,10,9,10,3,14,0.01,3,Rain,67
2013-8-25,89,81,73,72,70,62,87,69,50,30.27,30.22,30.18,10,9,6,13,6,17,0.00,4,,64
2013-8-26,90,80,70,70,67,62,84,66,47,30.25,30.19,30.13,10,10,10,15,6,17,T,3,,45
2013-8-27,93,84,74,71,70,67,87,67,47,30.15,30.09,30.03,10,10,10,7,2,13,0.00,4,,49
2013-8-28,95,84,72,71,69,67,87,64,41,30.09,30.05,30.00,10,10,7,8,2,10,0.00,2,,196
2013-8-29,95,83,71,74,70,66,87,65,43,30.06,30.01,29.96,10,8,4,9,1,14,0.00,1,,-1
2013-8-30,96,85,74,76,72,69,87,72,56,30.01,29.95,29.90,10,6,0,15,3,25,1.13,4,Rain-Thunderstorm,213
2013-8-31,93,83,73,75,72,69,93,73,52,30.00,29.94,29.90,10,6,0,9,2,13,0.00,4,Fog,175